sensor_id;sensor_type;location;lat;lon;timestamp;temperature;humidity
18384;DHT22;9318;48.644;9.456;2023-12-20T00:00:22;6.20;99.90
18384;DHT22;9318;48.644;9.456;2023-12-20T00:02:48;6.20;99.90
18384;DHT22;9318;48.644;9.456;2023-12-20T00:05:15;6.30;99.90
18384;DHT22;9318;48.644;9.456;2023-12-20T00:07:43;6.30;99.90
18384;DHT22;9318;48.644;9.456;2023-12-20T00:10:09;6.30;99.90
18384;DHT22;9318;48.644;9.456;2023-12-20T00:12:39;6.40;99.90
18384;DHT22;9318;48.644;9.456;2023-12-20T00:15:07;6.40;99.90
18384;DHT22;9318;48.644;9.456;2023-12-20T00:17:34;6.40;99.90
18384;DHT22;9318;48.644;9.456;2023-12-20T00:20:00;6.40;99.90
18384;DHT22;9318;48.644;9.456;2023-12-20T00:22:27;6.40;99.90
18384;DHT22;9318;48.644;9.456;2023-12-20T00:24:54;6.40;99.90
18384;DHT22;9318;48.644;9.456;2023-12-20T00:27:21;6.30;99.90
18384;DHT22;9318;48.644;9.456;2023-12-20T00:29:50;6.30;99.90
18384;DHT22;9318;48.644;9.456;2023-12-20T00:32:16;6.20;99.90
18384;DHT22;9318;48.644;9.456;2023-12-20T00:34:43;6.20;99.90
18384;DHT22;9318;48.644;9.456;2023-12-20T00:37:10;6.20;99.90
18384;DHT22;9318;48.644;9.456;2023-12-20T00:39:37;6.20;99.90
18384;DHT22;9318;48.644;9.456;2023-12-20T00:42:04;6.20;99.90
18384;DHT22;9318;48.644;9.456;2023-12-20T00:44:31;6.20;99.90
18384;DHT22;9318;48.644;9.456;2023-12-20T00:46:59;6.20;99.90
18384;DHT22;9318;48.644;9.456;2023-12-20T00:49:26;6.20;99.90
18384;DHT22;9318;48.644;9.456;2023-12-20T00:51:53;6.20;99.90
18384;DHT22;9318;48.644;9.456;2023-12-20T00:54:20;6.20;99.90
18384;DHT22;9318;48.644;9.456;2023-12-20T00:56:46;6.30;99.90
18384;DHT22;9318;48.644;9.456;2023-12-20T00:59:13;6.20;99.90
18384;DHT22;9318;48.644;9.456;2023-12-20T01:01:40;6.20;99.90
18384;DHT22;9318;48.644;9.456;2023-12-20T01:04:08;6.20;99.90
18384;DHT22;9318;48.644;9.456;2023-12-20T01:06:35;6.20;99.90
18384;DHT22;9318;48.644;9.456;2023-12-20T01:09:02;6.20;99.90
18384;DHT22;9318;48.644;9.456;2023-12-20T01:11:29;6.20;99.90
18384;DHT22;9318;48.644;9.456;2023-12-20T01:13:56;6.20;99.90
18384;DHT22;9318;48.644;9.456;2023-12-20T01:16:22;6.20;99.90
18384;DHT22;9318;48.644;9.456;2023-12-20T01:18:49;6.10;99.90
18384;DHT22;9318;48.644;9.456;2023-12-20T01:21:17;6.10;99.90
18384;DHT22;9318;48.644;9.456;2023-12-20T01:23:44;6.10;99.90
18384;DHT22;9318;48.644;9.456;2023-12-20T01:26:11;6.10;99.90
18384;DHT22;9318;48.644;9.456;2023-12-20T01:28:38;6.10;99.90
18384;DHT22;9318;48.644;9.456;2023-12-20T01:31:04;6.10;99.90
18384;DHT22;9318;48.644;9.456;2023-12-20T01:33:31;6.10;99.90
18384;DHT22;9318;48.644;9.456;2023-12-20T01:35:58;6.10;99.90
18384;DHT22;9318;48.644;9.456;2023-12-20T01:38:26;6.10;99.90
18384;DHT22;9318;48.644;9.456;2023-12-20T01:40:53;6.10;99.90
18384;DHT22;9318;48.644;9.456;2023-12-20T01:43:19;6.10;99.90
18384;DHT22;9318;48.644;9.456;2023-12-20T01:45:47;6.10;99.90
18384;DHT22;9318;48.644;9.456;2023-12-20T01:48:15;6.10;99.90
18384;DHT22;9318;48.644;9.456;2023-12-20T01:50:43;6.10;99.90
18384;DHT22;9318;48.644;9.456;2023-12-20T01:53:11;6.10;99.90
18384;DHT22;9318;48.644;9.456;2023-12-20T01:55:40;6.10;99.90
18384;DHT22;9318;48.644;9.456;2023-12-20T01:58:08;6.00;99.90
18384;DHT22;9318;48.644;9.456;2023-12-20T02:00:36;6.00;99.90
18384;DHT22;9318;48.644;9.456;2023-12-20T02:03:04;6.00;99.90
18384;DHT22;9318;48.644;9.456;2023-12-20T02:05:32;6.00;99.90
18384;DHT22;9318;48.644;9.456;2023-12-20T02:07:59;6.00;99.90
18384;DHT22;9318;48.644;9.456;2023-12-20T02:10:26;6.00;99.90
18384;DHT22;9318;48.644;9.456;2023-12-20T02:12:54;6.00;99.90
18384;DHT22;9318;48.644;9.456;2023-12-20T02:15:21;6.00;99.90
18384;DHT22;9318;48.644;9.456;2023-12-20T02:17:48;6.00;99.90
18384;DHT22;9318;48.644;9.456;2023-12-20T02:20:15;6.00;99.90
18384;DHT22;9318;48.644;9.456;2023-12-20T02:22:43;6.00;99.90
18384;DHT22;9318;48.644;9.456;2023-12-20T02:25:10;6.00;99.90
18384;DHT22;9318;48.644;9.456;2023-12-20T02:27:37;6.00;99.90
18384;DHT22;9318;48.644;9.456;2023-12-20T02:30:05;6.00;99.90
18384;DHT22;9318;48.644;9.456;2023-12-20T02:32:33;6.00;99.90
18384;DHT22;9318;48.644;9.456;2023-12-20T02:34:59;6.00;99.90
18384;DHT22;9318;48.644;9.456;2023-12-20T02:37:26;6.00;99.90
18384;DHT22;9318;48.644;9.456;2023-12-20T02:39:54;6.00;99.90
18384;DHT22;9318;48.644;9.456;2023-12-20T02:42:21;6.00;99.90
18384;DHT22;9318;48.644;9.456;2023-12-20T02:44:48;6.00;99.90
18384;DHT22;9318;48.644;9.456;2023-12-20T02:47:14;6.00;99.90
18384;DHT22;9318;48.644;9.456;2023-12-20T02:49:41;6.00;99.90
18384;DHT22;9318;48.644;9.456;2023-12-20T02:52:08;6.00;99.90
18384;DHT22;9318;48.644;9.456;2023-12-20T02:54:35;6.00;99.90
18384;DHT22;9318;48.644;9.456;2023-12-20T02:57:03;6.00;99.90
18384;DHT22;9318;48.644;9.456;2023-12-20T02:59:30;5.90;99.90
18384;DHT22;9318;48.644;9.456;2023-12-20T03:01:57;5.90;99.90
18384;DHT22;9318;48.644;9.456;2023-12-20T03:04:23;5.90;99.90
18384;DHT22;9318;48.644;9.456;2023-12-20T03:06:50;6.00;99.90
18384;DHT22;9318;48.644;9.456;2023-12-20T03:09:17;5.90;99.90
18384;DHT22;9318;48.644;9.456;2023-12-20T03:11:44;5.90;99.90
18384;DHT22;9318;48.644;9.456;2023-12-20T03:14:12;5.90;99.90
18384;DHT22;9318;48.644;9.456;2023-12-20T03:16:39;5.90;99.90
18384;DHT22;9318;48.644;9.456;2023-12-20T03:19:05;6.00;99.90
18384;DHT22;9318;48.644;9.456;2023-12-20T03:21:32;6.00;99.90
18384;DHT22;9318;48.644;9.456;2023-12-20T03:23:59;6.00;99.90
18384;DHT22;9318;48.644;9.456;2023-12-20T03:26:25;6.00;99.90
18384;DHT22;9318;48.644;9.456;2023-12-20T03:28:52;6.00;99.90
18384;DHT22;9318;48.644;9.456;2023-12-20T03:31:20;6.00;99.90
18384;DHT22;9318;48.644;9.456;2023-12-20T03:33:47;6.00;99.90
18384;DHT22;9318;48.644;9.456;2023-12-20T03:36:14;6.00;99.90
18384;DHT22;9318;48.644;9.456;2023-12-20T03:38:40;6.00;99.90
18384;DHT22;9318;48.644;9.456;2023-12-20T03:41:07;5.90;99.90
18384;DHT22;9318;48.644;9.456;2023-12-20T03:43:34;5.90;99.90
18384;DHT22;9318;48.644;9.456;2023-12-20T03:46:01;5.90;99.90
18384;DHT22;9318;48.644;9.456;2023-12-20T03:48:30;5.90;99.90
18384;DHT22;9318;48.644;9.456;2023-12-20T03:50:57;5.90;99.90
18384;DHT22;9318;48.644;9.456;2023-12-20T03:53:24;5.90;99.90
18384;DHT22;9318;48.644;9.456;2023-12-20T03:55:50;5.90;99.90
18384;DHT22;9318;48.644;9.456;2023-12-20T03:58:17;5.90;99.90
18384;DHT22;9318;48.644;9.456;2023-12-20T04:00:44;5.90;99.90
18384;DHT22;9318;48.644;9.456;2023-12-20T04:03:11;5.90;99.90
18384;DHT22;9318;48.644;9.456;2023-12-20T04:05:40;5.80;99.90
18384;DHT22;9318;48.644;9.456;2023-12-20T04:08:07;5.80;99.90
18384;DHT22;9318;48.644;9.456;2023-12-20T04:10:34;5.80;99.90
18384;DHT22;9318;48.644;9.456;2023-12-20T04:13:01;5.80;99.90
18384;DHT22;9318;48.644;9.456;2023-12-20T04:15:27;5.70;99.90
18384;DHT22;9318;48.644;9.456;2023-12-20T04:17:54;5.70;99.90
18384;DHT22;9318;48.644;9.456;2023-12-20T04:20:21;5.80;99.90
18384;DHT22;9318;48.644;9.456;2023-12-20T04:22:49;5.70;99.90
18384;DHT22;9318;48.644;9.456;2023-12-20T04:25:16;5.70;99.90
18384;DHT22;9318;48.644;9.456;2023-12-20T04:27:42;5.70;99.90
18384;DHT22;9318;48.644;9.456;2023-12-20T04:30:10;5.70;99.90
18384;DHT22;9318;48.644;9.456;2023-12-20T04:32:37;5.70;99.90
18384;DHT22;9318;48.644;9.456;2023-12-20T04:35:04;5.70;99.90
18384;DHT22;9318;48.644;9.456;2023-12-20T04:37:30;5.70;99.90
18384;DHT22;9318;48.644;9.456;2023-12-20T04:39:58;5.70;99.90
18384;DHT22;9318;48.644;9.456;2023-12-20T04:42:25;5.70;99.90
18384;DHT22;9318;48.644;9.456;2023-12-20T04:44:51;5.70;99.90
18384;DHT22;9318;48.644;9.456;2023-12-20T04:47:18;5.70;99.90
18384;DHT22;9318;48.644;9.456;2023-12-20T04:49:45;5.70;99.90
18384;DHT22;9318;48.644;9.456;2023-12-20T04:52:12;5.70;99.90
18384;DHT22;9318;48.644;9.456;2023-12-20T04:54:38;5.70;99.90
18384;DHT22;9318;48.644;9.456;2023-12-20T04:57:06;5.70;99.90
18384;DHT22;9318;48.644;9.456;2023-12-20T04:59:33;5.70;99.90
18384;DHT22;9318;48.644;9.456;2023-12-20T05:02:00;5.70;99.90
18384;DHT22;9318;48.644;9.456;2023-12-20T05:04:27;5.70;99.90
18384;DHT22;9318;48.644;9.456;2023-12-20T05:06:54;5.60;99.90
18384;DHT22;9318;48.644;9.456;2023-12-20T05:09:20;5.60;99.90
18384;DHT22;9318;48.644;9.456;2023-12-20T05:11:47;5.60;99.90
18384;DHT22;9318;48.644;9.456;2023-12-20T05:14:15;5.60;99.90
18384;DHT22;9318;48.644;9.456;2023-12-20T05:16:43;5.60;99.90
18384;DHT22;9318;48.644;9.456;2023-12-20T05:19:10;5.60;99.90
18384;DHT22;9318;48.644;9.456;2023-12-20T05:21:36;5.60;99.90
18384;DHT22;9318;48.644;9.456;2023-12-20T05:24:04;5.60;99.90
18384;DHT22;9318;48.644;9.456;2023-12-20T05:26:31;5.60;99.90
18384;DHT22;9318;48.644;9.456;2023-12-20T05:28:57;5.60;99.90
18384;DHT22;9318;48.644;9.456;2023-12-20T05:31:25;5.70;99.90
18384;DHT22;9318;48.644;9.456;2023-12-20T05:33:52;5.60;99.90
18384;DHT22;9318;48.644;9.456;2023-12-20T05:36:19;5.60;99.90
18384;DHT22;9318;48.644;9.456;2023-12-20T05:38:46;5.60;99.90
18384;DHT22;9318;48.644;9.456;2023-12-20T05:41:12;5.60;99.90
18384;DHT22;9318;48.644;9.456;2023-12-20T05:43:40;5.60;99.90
18384;DHT22;9318;48.644;9.456;2023-12-20T05:46:06;5.60;99.90
18384;DHT22;9318;48.644;9.456;2023-12-20T05:48:34;5.60;99.90
18384;DHT22;9318;48.644;9.456;2023-12-20T05:51:01;5.60;99.90
18384;DHT22;9318;48.644;9.456;2023-12-20T05:53:28;5.60;99.90
18384;DHT22;9318;48.644;9.456;2023-12-20T05:55:55;5.60;99.90
18384;DHT22;9318;48.644;9.456;2023-12-20T05:58:21;5.60;99.90
18384;DHT22;9318;48.644;9.456;2023-12-20T06:00:48;5.60;99.90
18384;DHT22;9318;48.644;9.456;2023-12-20T06:03:15;5.60;99.90
18384;DHT22;9318;48.644;9.456;2023-12-20T06:05:43;5.60;99.90
18384;DHT22;9318;48.644;9.456;2023-12-20T06:08:11;5.60;99.90
18384;DHT22;9318;48.644;9.456;2023-12-20T06:10:39;5.50;99.90
18384;DHT22;9318;48.644;9.456;2023-12-20T06:13:06;5.50;99.90
18384;DHT22;9318;48.644;9.456;2023-12-20T06:15:33;5.50;99.90
18384;DHT22;9318;48.644;9.456;2023-12-20T06:18:01;5.60;99.90
18384;DHT22;9318;48.644;9.456;2023-12-20T06:20:32;5.60;99.90
18384;DHT22;9318;48.644;9.456;2023-12-20T06:23:11;5.50;99.90
18384;DHT22;9318;48.644;9.456;2023-12-20T06:25:38;5.60;99.90
18384;DHT22;9318;48.644;9.456;2023-12-20T06:28:06;5.60;99.90
18384;DHT22;9318;48.644;9.456;2023-12-20T06:30:33;5.60;99.90
18384;DHT22;9318;48.644;9.456;2023-12-20T06:33:00;5.60;99.90
18384;DHT22;9318;48.644;9.456;2023-12-20T06:35:27;5.60;99.90
18384;DHT22;9318;48.644;9.456;2023-12-20T06:38:09;5.60;99.90
18384;DHT22;9318;48.644;9.456;2023-12-20T06:40:36;5.60;99.90
18384;DHT22;9318;48.644;9.456;2023-12-20T06:43:06;5.60;99.90
18384;DHT22;9318;48.644;9.456;2023-12-20T06:45:36;5.60;99.90
18384;DHT22;9318;48.644;9.456;2023-12-20T06:48:08;5.60;99.90
18384;DHT22;9318;48.644;9.456;2023-12-20T06:50:39;5.70;99.90
18384;DHT22;9318;48.644;9.456;2023-12-20T06:53:06;5.60;99.90
18384;DHT22;9318;48.644;9.456;2023-12-20T06:55:36;5.70;99.90
18384;DHT22;9318;48.644;9.456;2023-12-20T06:58:03;5.60;99.90
18384;DHT22;9318;48.644;9.456;2023-12-20T07:00:30;5.60;99.90
18384;DHT22;9318;48.644;9.456;2023-12-20T07:02:57;5.60;99.90
18384;DHT22;9318;48.644;9.456;2023-12-20T07:05:29;5.60;99.90
18384;DHT22;9318;48.644;9.456;2023-12-20T07:07:58;5.60;99.90
18384;DHT22;9318;48.644;9.456;2023-12-20T07:10:41;5.60;99.90
18384;DHT22;9318;48.644;9.456;2023-12-20T07:13:08;5.60;99.90
18384;DHT22;9318;48.644;9.456;2023-12-20T07:15:35;5.60;99.90
18384;DHT22;9318;48.644;9.456;2023-12-20T07:18:02;5.60;99.90
18384;DHT22;9318;48.644;9.456;2023-12-20T07:20:30;5.60;99.90
18384;DHT22;9318;48.644;9.456;2023-12-20T07:22:57;5.70;99.90
18384;DHT22;9318;48.644;9.456;2023-12-20T07:25:23;5.70;99.90
18384;DHT22;9318;48.644;9.456;2023-12-20T07:27:51;5.70;99.90
18384;DHT22;9318;48.644;9.456;2023-12-20T07:30:18;5.80;99.90
18384;DHT22;9318;48.644;9.456;2023-12-20T07:32:45;5.80;99.90
18384;DHT22;9318;48.644;9.456;2023-12-20T07:35:13;5.70;99.90
18384;DHT22;9318;48.644;9.456;2023-12-20T07:37:39;5.70;99.90
18384;DHT22;9318;48.644;9.456;2023-12-20T07:40:07;5.70;99.90
18384;DHT22;9318;48.644;9.456;2023-12-20T07:42:34;5.70;99.90
18384;DHT22;9318;48.644;9.456;2023-12-20T07:45:13;5.70;99.90
18384;DHT22;9318;48.644;9.456;2023-12-20T07:47:40;5.70;99.90
18384;DHT22;9318;48.644;9.456;2023-12-20T07:50:10;5.70;99.90
18384;DHT22;9318;48.644;9.456;2023-12-20T07:52:37;5.70;99.90
18384;DHT22;9318;48.644;9.456;2023-12-20T07:55:04;5.80;99.90
18384;DHT22;9318;48.644;9.456;2023-12-20T07:57:31;5.80;99.90
18384;DHT22;9318;48.644;9.456;2023-12-20T07:59:57;5.70;99.90
18384;DHT22;9318;48.644;9.456;2023-12-20T08:02:25;5.80;99.90
18384;DHT22;9318;48.644;9.456;2023-12-20T08:04:52;5.80;99.90
18384;DHT22;9318;48.644;9.456;2023-12-20T08:07:19;5.80;99.90
18384;DHT22;9318;48.644;9.456;2023-12-20T08:09:46;5.80;99.90
18384;DHT22;9318;48.644;9.456;2023-12-20T08:12:12;5.80;99.90
18384;DHT22;9318;48.644;9.456;2023-12-20T08:14:40;5.80;99.90
18384;DHT22;9318;48.644;9.456;2023-12-20T08:17:06;5.90;99.90
18384;DHT22;9318;48.644;9.456;2023-12-20T08:19:34;5.90;99.90
18384;DHT22;9318;48.644;9.456;2023-12-20T08:22:07;5.90;99.90
18384;DHT22;9318;48.644;9.456;2023-12-20T08:24:45;5.90;99.90
18384;DHT22;9318;48.644;9.456;2023-12-20T08:27:12;5.90;99.90
18384;DHT22;9318;48.644;9.456;2023-12-20T08:29:38;5.90;99.90
18384;DHT22;9318;48.644;9.456;2023-12-20T08:32:07;5.90;99.90
18384;DHT22;9318;48.644;9.456;2023-12-20T08:34:35;5.90;99.90
18384;DHT22;9318;48.644;9.456;2023-12-20T08:37:02;6.00;99.90
18384;DHT22;9318;48.644;9.456;2023-12-20T08:39:29;5.90;99.90
18384;DHT22;9318;48.644;9.456;2023-12-20T08:41:56;5.90;99.90
18384;DHT22;9318;48.644;9.456;2023-12-20T08:44:23;5.90;99.90
18384;DHT22;9318;48.644;9.456;2023-12-20T08:46:49;5.90;99.90
18384;DHT22;9318;48.644;9.456;2023-12-20T08:49:16;6.00;99.90
18384;DHT22;9318;48.644;9.456;2023-12-20T08:51:44;6.10;99.90
18384;DHT22;9318;48.644;9.456;2023-12-20T08:54:11;6.00;99.90
18384;DHT22;9318;48.644;9.456;2023-12-20T08:56:38;6.00;99.90
18384;DHT22;9318;48.644;9.456;2023-12-20T08:59:06;6.00;99.90
18384;DHT22;9318;48.644;9.456;2023-12-20T09:01:33;6.00;99.90
18384;DHT22;9318;48.644;9.456;2023-12-20T09:04:00;6.10;99.90
18384;DHT22;9318;48.644;9.456;2023-12-20T09:06:27;6.20;99.90
18384;DHT22;9318;48.644;9.456;2023-12-20T09:08:55;6.70;99.90
18384;DHT22;9318;48.644;9.456;2023-12-20T09:11:22;7.20;99.90
18384;DHT22;9318;48.644;9.456;2023-12-20T09:13:49;7.80;99.90
18384;DHT22;9318;48.644;9.456;2023-12-20T09:16:16;8.20;99.90
18384;DHT22;9318;48.644;9.456;2023-12-20T09:18:43;8.50;99.90
18384;DHT22;9318;48.644;9.456;2023-12-20T09:21:09;8.70;99.90
18384;DHT22;9318;48.644;9.456;2023-12-20T09:23:37;8.90;99.90
18384;DHT22;9318;48.644;9.456;2023-12-20T09:26:06;9.20;99.90
18384;DHT22;9318;48.644;9.456;2023-12-20T09:28:33;9.50;99.90
18384;DHT22;9318;48.644;9.456;2023-12-20T09:31:03;9.80;99.90
18384;DHT22;9318;48.644;9.456;2023-12-20T09:33:30;10.00;99.90
18384;DHT22;9318;48.644;9.456;2023-12-20T09:35:57;9.90;99.90
18384;DHT22;9318;48.644;9.456;2023-12-20T09:38:25;9.90;99.90
18384;DHT22;9318;48.644;9.456;2023-12-20T09:40:52;9.80;99.90
18384;DHT22;9318;48.644;9.456;2023-12-20T09:43:24;9.70;99.90
18384;DHT22;9318;48.644;9.456;2023-12-20T09:45:53;9.70;99.90
18384;DHT22;9318;48.644;9.456;2023-12-20T09:48:20;9.50;99.90
18384;DHT22;9318;48.644;9.456;2023-12-20T09:50:47;9.50;99.90
18384;DHT22;9318;48.644;9.456;2023-12-20T09:53:15;9.40;99.90
18384;DHT22;9318;48.644;9.456;2023-12-20T09:55:42;9.30;99.90
18384;DHT22;9318;48.644;9.456;2023-12-20T09:58:09;9.30;99.90
18384;DHT22;9318;48.644;9.456;2023-12-20T10:00:37;9.50;99.90
18384;DHT22;9318;48.644;9.456;2023-12-20T10:03:06;9.60;99.90
18384;DHT22;9318;48.644;9.456;2023-12-20T10:05:33;9.80;99.90
18384;DHT22;9318;48.644;9.456;2023-12-20T10:08:04;9.80;99.90
18384;DHT22;9318;48.644;9.456;2023-12-20T10:10:31;9.90;99.90
18384;DHT22;9318;48.644;9.456;2023-12-20T10:13:03;10.00;99.90
18384;DHT22;9318;48.644;9.456;2023-12-20T10:15:32;9.70;99.90
18384;DHT22;9318;48.644;9.456;2023-12-20T10:18:01;9.40;99.90
18384;DHT22;9318;48.644;9.456;2023-12-20T10:20:28;9.20;99.90
18384;DHT22;9318;48.644;9.456;2023-12-20T10:22:55;9.10;99.90
18384;DHT22;9318;48.644;9.456;2023-12-20T10:25:22;8.90;99.90
18384;DHT22;9318;48.644;9.456;2023-12-20T10:27:50;9.00;99.90
18384;DHT22;9318;48.644;9.456;2023-12-20T10:30:17;9.10;99.90
18384;DHT22;9318;48.644;9.456;2023-12-20T10:32:43;9.20;99.90
18384;DHT22;9318;48.644;9.456;2023-12-20T10:35:11;9.20;99.90
18384;DHT22;9318;48.644;9.456;2023-12-20T10:37:39;9.30;99.90
18384;DHT22;9318;48.644;9.456;2023-12-20T10:40:06;9.30;99.90
18384;DHT22;9318;48.644;9.456;2023-12-20T10:42:35;9.40;99.90
18384;DHT22;9318;48.644;9.456;2023-12-20T10:45:03;9.50;99.90
18384;DHT22;9318;48.644;9.456;2023-12-20T10:47:31;9.60;99.90
18384;DHT22;9318;48.644;9.456;2023-12-20T10:49:59;9.70;99.90
18384;DHT22;9318;48.644;9.456;2023-12-20T10:52:29;9.60;99.90
18384;DHT22;9318;48.644;9.456;2023-12-20T10:54:58;9.80;99.90
18384;DHT22;9318;48.644;9.456;2023-12-20T10:57:27;9.90;99.90
18384;DHT22;9318;48.644;9.456;2023-12-20T10:59:54;9.90;99.90
18384;DHT22;9318;48.644;9.456;2023-12-20T11:02:22;9.80;99.90
18384;DHT22;9318;48.644;9.456;2023-12-20T11:04:55;9.70;99.90
18384;DHT22;9318;48.644;9.456;2023-12-20T11:07:37;9.70;99.90
18384;DHT22;9318;48.644;9.456;2023-12-20T11:10:13;9.60;99.90
18384;DHT22;9318;48.644;9.456;2023-12-20T11:12:48;9.70;99.90
18384;DHT22;9318;48.644;9.456;2023-12-20T11:15:19;9.80;99.90
18384;DHT22;9318;48.644;9.456;2023-12-20T11:17:47;9.90;99.90
18384;DHT22;9318;48.644;9.456;2023-12-20T11:20:22;10.10;99.90
18384;DHT22;9318;48.644;9.456;2023-12-20T11:22:54;10.30;99.90
18384;DHT22;9318;48.644;9.456;2023-12-20T11:25:21;10.40;99.90
18384;DHT22;9318;48.644;9.456;2023-12-20T11:28:07;10.30;99.90
18384;DHT22;9318;48.644;9.456;2023-12-20T11:30:41;10.10;99.90
18384;DHT22;9318;48.644;9.456;2023-12-20T11:33:09;10.20;99.90
18384;DHT22;9318;48.644;9.456;2023-12-20T11:35:36;10.10;99.90
18384;DHT22;9318;48.644;9.456;2023-12-20T11:38:07;9.90;99.90
18384;DHT22;9318;48.644;9.456;2023-12-20T11:40:35;9.80;99.90
18384;DHT22;9318;48.644;9.456;2023-12-20T11:43:02;9.60;99.90
18384;DHT22;9318;48.644;9.456;2023-12-20T11:45:34;9.30;99.90
18384;DHT22;9318;48.644;9.456;2023-12-20T11:48:13;9.00;99.90
18384;DHT22;9318;48.644;9.456;2023-12-20T11:50:40;8.70;99.90
18384;DHT22;9318;48.644;9.456;2023-12-20T11:53:11;8.40;99.90
18384;DHT22;9318;48.644;9.456;2023-12-20T11:55:38;8.10;99.90
18384;DHT22;9318;48.644;9.456;2023-12-20T11:58:18;8.10;99.90
18384;DHT22;9318;48.644;9.456;2023-12-20T12:00:49;7.90;99.90
18384;DHT22;9318;48.644;9.456;2023-12-20T12:03:18;7.70;99.90
18384;DHT22;9318;48.644;9.456;2023-12-20T12:05:48;7.50;99.90
18384;DHT22;9318;48.644;9.456;2023-12-20T12:08:16;7.40;99.90
18384;DHT22;9318;48.644;9.456;2023-12-20T12:10:57;7.30;99.90
18384;DHT22;9318;48.644;9.456;2023-12-20T12:13:23;7.20;99.90
18384;DHT22;9318;48.644;9.456;2023-12-20T12:15:53;7.20;99.90
18384;DHT22;9318;48.644;9.456;2023-12-20T12:18:20;7.10;99.90
18384;DHT22;9318;48.644;9.456;2023-12-20T12:20:49;6.90;99.90
18384;DHT22;9318;48.644;9.456;2023-12-20T12:23:31;6.90;99.90
18384;DHT22;9318;48.644;9.456;2023-12-20T12:25:58;6.90;99.90
18384;DHT22;9318;48.644;9.456;2023-12-20T12:28:26;6.90;99.90
18384;DHT22;9318;48.644;9.456;2023-12-20T12:31:05;6.80;99.90
18384;DHT22;9318;48.644;9.456;2023-12-20T12:33:32;6.90;99.90
18384;DHT22;9318;48.644;9.456;2023-12-20T12:35:59;6.90;99.90
18384;DHT22;9318;48.644;9.456;2023-12-20T12:38:28;7.10;99.90
18384;DHT22;9318;48.644;9.456;2023-12-20T12:40:57;7.00;99.90
18384;DHT22;9318;48.644;9.456;2023-12-20T12:43:24;7.00;99.90
18384;DHT22;9318;48.644;9.456;2023-12-20T12:45:51;7.10;99.90
18384;DHT22;9318;48.644;9.456;2023-12-20T12:48:32;7.10;99.90
18384;DHT22;9318;48.644;9.456;2023-12-20T12:50:59;7.20;99.90
18384;DHT22;9318;48.644;9.456;2023-12-20T12:53:28;7.10;99.90
18384;DHT22;9318;48.644;9.456;2023-12-20T12:55:56;7.20;99.90
18384;DHT22;9318;48.644;9.456;2023-12-20T12:58:23;7.40;99.90
18384;DHT22;9318;48.644;9.456;2023-12-20T13:00:51;7.40;99.90
18384;DHT22;9318;48.644;9.456;2023-12-20T13:03:18;7.40;99.90
18384;DHT22;9318;48.644;9.456;2023-12-20T13:05:45;7.40;99.90
18384;DHT22;9318;48.644;9.456;2023-12-20T13:08:12;7.30;99.90
18384;DHT22;9318;48.644;9.456;2023-12-20T13:10:41;7.30;99.90
18384;DHT22;9318;48.644;9.456;2023-12-20T13:13:08;7.30;99.90
18384;DHT22;9318;48.644;9.456;2023-12-20T13:15:35;7.20;99.90
18384;DHT22;9318;48.644;9.456;2023-12-20T13:18:16;7.10;99.90
18384;DHT22;9318;48.644;9.456;2023-12-20T13:20:43;7.10;99.90
18384;DHT22;9318;48.644;9.456;2023-12-20T13:23:10;7.10;99.90
18384;DHT22;9318;48.644;9.456;2023-12-20T13:25:42;7.00;99.90
18384;DHT22;9318;48.644;9.456;2023-12-20T13:28:11;7.10;99.90
18384;DHT22;9318;48.644;9.456;2023-12-20T13:30:49;7.00;99.90
18384;DHT22;9318;48.644;9.456;2023-12-20T13:33:16;7.00;99.90
18384;DHT22;9318;48.644;9.456;2023-12-20T13:35:43;7.00;99.90
18384;DHT22;9318;48.644;9.456;2023-12-20T13:38:19;7.00;99.90
18384;DHT22;9318;48.644;9.456;2023-12-20T13:40:55;7.10;99.90
18384;DHT22;9318;48.644;9.456;2023-12-20T13:43:23;7.10;99.90
18384;DHT22;9318;48.644;9.456;2023-12-20T13:45:51;7.10;99.90
18384;DHT22;9318;48.644;9.456;2023-12-20T13:48:18;7.20;99.90
18384;DHT22;9318;48.644;9.456;2023-12-20T13:50:44;7.20;99.90
18384;DHT22;9318;48.644;9.456;2023-12-20T13:53:11;7.10;99.90
18384;DHT22;9318;48.644;9.456;2023-12-20T13:55:38;7.00;99.90
18384;DHT22;9318;48.644;9.456;2023-12-20T13:58:07;7.00;99.90
18384;DHT22;9318;48.644;9.456;2023-12-20T14:00:35;6.90;99.90
18384;DHT22;9318;48.644;9.456;2023-12-20T14:03:03;6.90;99.90
18384;DHT22;9318;48.644;9.456;2023-12-20T14:05:31;6.90;99.90
18384;DHT22;9318;48.644;9.456;2023-12-20T14:07:58;6.90;99.90
18384;DHT22;9318;48.644;9.456;2023-12-20T14:10:26;6.80;99.90
18384;DHT22;9318;48.644;9.456;2023-12-20T14:12:53;6.70;99.90
18384;DHT22;9318;48.644;9.456;2023-12-20T14:15:21;6.70;99.90
18384;DHT22;9318;48.644;9.456;2023-12-20T14:17:51;6.60;99.90
18384;DHT22;9318;48.644;9.456;2023-12-20T14:20:18;6.60;99.90
18384;DHT22;9318;48.644;9.456;2023-12-20T14:22:45;6.60;99.90
18384;DHT22;9318;48.644;9.456;2023-12-20T14:25:12;6.60;99.90
18384;DHT22;9318;48.644;9.456;2023-12-20T14:27:40;6.50;99.90
18384;DHT22;9318;48.644;9.456;2023-12-20T14:30:09;6.50;99.90
18384;DHT22;9318;48.644;9.456;2023-12-20T14:32:40;6.40;99.90
18384;DHT22;9318;48.644;9.456;2023-12-20T14:35:07;6.40;99.90
18384;DHT22;9318;48.644;9.456;2023-12-20T14:37:34;6.40;99.90
18384;DHT22;9318;48.644;9.456;2023-12-20T14:40:05;6.40;99.90
18384;DHT22;9318;48.644;9.456;2023-12-20T14:42:32;6.40;99.90
18384;DHT22;9318;48.644;9.456;2023-12-20T14:44:58;6.30;99.90
18384;DHT22;9318;48.644;9.456;2023-12-20T14:47:25;6.20;99.90
18384;DHT22;9318;48.644;9.456;2023-12-20T14:49:53;6.20;99.90
18384;DHT22;9318;48.644;9.456;2023-12-20T14:52:21;6.10;99.90
18384;DHT22;9318;48.644;9.456;2023-12-20T14:54:48;6.00;99.90
18384;DHT22;9318;48.644;9.456;2023-12-20T14:57:15;6.00;99.90
18384;DHT22;9318;48.644;9.456;2023-12-20T14:59:43;5.90;99.90
18384;DHT22;9318;48.644;9.456;2023-12-20T15:02:10;6.00;99.90
18384;DHT22;9318;48.644;9.456;2023-12-20T15:04:36;5.90;99.90
18384;DHT22;9318;48.644;9.456;2023-12-20T15:07:05;5.90;99.90
18384;DHT22;9318;48.644;9.456;2023-12-20T15:09:32;5.90;99.90
18384;DHT22;9318;48.644;9.456;2023-12-20T15:11:59;5.80;99.90
18384;DHT22;9318;48.644;9.456;2023-12-20T15:14:26;5.80;99.90
18384;DHT22;9318;48.644;9.456;2023-12-20T15:16:54;5.90;99.90
18384;DHT22;9318;48.644;9.456;2023-12-20T15:19:21;5.90;99.90
18384;DHT22;9318;48.644;9.456;2023-12-20T15:21:48;5.80;99.90
18384;DHT22;9318;48.644;9.456;2023-12-20T15:24:17;5.70;99.90
18384;DHT22;9318;48.644;9.456;2023-12-20T15:26:45;5.70;99.90
18384;DHT22;9318;48.644;9.456;2023-12-20T15:29:12;5.60;99.90
18384;DHT22;9318;48.644;9.456;2023-12-20T15:31:42;5.60;99.90
18384;DHT22;9318;48.644;9.456;2023-12-20T15:34:09;5.60;99.90
18384;DHT22;9318;48.644;9.456;2023-12-20T15:36:36;5.50;99.90
18384;DHT22;9318;48.644;9.456;2023-12-20T15:39:04;5.50;99.90
18384;DHT22;9318;48.644;9.456;2023-12-20T15:41:32;5.50;99.90
18384;DHT22;9318;48.644;9.456;2023-12-20T15:43:59;5.50;99.90
18384;DHT22;9318;48.644;9.456;2023-12-20T15:46:26;5.50;99.90
18384;DHT22;9318;48.644;9.456;2023-12-20T15:48:52;5.50;99.90
18384;DHT22;9318;48.644;9.456;2023-12-20T15:51:20;5.50;99.90
18384;DHT22;9318;48.644;9.456;2023-12-20T15:53:47;5.50;99.90
18384;DHT22;9318;48.644;9.456;2023-12-20T15:56:15;5.50;99.90
18384;DHT22;9318;48.644;9.456;2023-12-20T15:58:43;5.40;99.90
18384;DHT22;9318;48.644;9.456;2023-12-20T16:01:10;5.40;99.90
18384;DHT22;9318;48.644;9.456;2023-12-20T16:03:37;5.40;99.90
18384;DHT22;9318;48.644;9.456;2023-12-20T16:06:04;5.40;99.90